sensor_id;sensor_type;location;lat;lon;timestamp;pressure;altitude;pressure_sealevel;temperature;humidity
58622;BME280;44389;51.578;5.456;2023-02-15T00:51:52;102777.41;;;-0.74;100.00
58622;BME280;44389;51.578;5.456;2023-02-15T00:54:18;102780.34;;;-0.78;100.00
58622;BME280;44389;51.578;5.456;2023-02-15T00:56:43;102776.03;;;-0.79;100.00
58622;BME280;44389;51.578;5.456;2023-02-15T00:59:09;102773.50;;;-0.79;100.00
58622;BME280;44389;51.578;5.456;2023-02-15T01:01:34;102776.84;;;-0.87;100.00
58622;BME280;44389;51.578;5.456;2023-02-15T01:03:59;102775.38;;;-1.01;100.00
58622;BME280;44389;51.578;5.456;2023-02-15T01:06:24;102776.34;;;-1.08;100.00
58622;BME280;44389;51.578;5.456;2023-02-15T01:08:50;102771.28;;;-1.08;100.00
58622;BME280;44389;51.578;5.456;2023-02-15T01:11:18;102773.81;;;-1.08;100.00
58622;BME280;44389;51.578;5.456;2023-02-15T01:13:51;102766.63;;;-1.12;100.00
58622;BME280;44389;51.578;5.456;2023-02-15T01:16:18;102762.41;;;-1.04;100.00
58622;BME280;44389;51.578;5.456;2023-02-15T01:18:43;102755.13;;;-1.17;100.00
58622;BME280;44389;51.578;5.456;2023-02-15T01:21:20;102764.00;;;-1.05;100.00
58622;BME280;44389;51.578;5.456;2023-02-15T01:23:46;102758.94;;;-1.05;100.00
58622;BME280;44389;51.578;5.456;2023-02-15T01:26:12;102753.56;;;-1.08;100.00
58622;BME280;44389;51.578;5.456;2023-02-15T01:28:37;102755.53;;;-1.05;100.00
58622;BME280;44389;51.578;5.456;2023-02-15T01:31:12;102753.00;;;-1.05;100.00
58622;BME280;44389;51.578;5.456;2023-02-15T01:33:37;102751.28;;;-1.13;100.00
58622;BME280;44389;51.578;5.456;2023-02-15T01:36:04;102752.91;;;-1.14;100.00
58622;BME280;44389;51.578;5.456;2023-02-15T01:38:29;102748.25;;;-1.18;100.00
58622;BME280;44389;51.578;5.456;2023-02-15T01:40:55;102752.22;;;-1.36;100.00
58622;BME280;44389;51.578;5.456;2023-02-15T01:43:49;102737.56;;;-1.31;100.00
58622;BME280;44389;51.578;5.456;2023-02-15T01:46:17;102738.13;;;-1.34;100.00
58622;BME280;44389;51.578;5.456;2023-02-15T01:48:47;102737.38;;;-1.33;100.00
58622;BME280;44389;51.578;5.456;2023-02-15T01:51:14;102746.53;;;-1.26;100.00
58622;BME280;44389;51.578;5.456;2023-02-15T01:53:48;102748.75;;;-1.53;100.00
58622;BME280;44389;51.578;5.456;2023-02-15T01:56:19;102737.63;;;-1.39;100.00
58622;BME280;44389;51.578;5.456;2023-02-15T01:58:47;102731.69;;;-1.23;100.00
58622;BME280;44389;51.578;5.456;2023-02-15T02:01:13;102737.16;;;-1.27;100.00
58622;BME280;44389;51.578;5.456;2023-02-15T02:04:11;102730.28;;;-1.28;100.00
58622;BME280;44389;51.578;5.456;2023-02-15T02:06:39;102731.66;;;-1.39;100.00
58622;BME280;44389;51.578;5.456;2023-02-15T02:09:05;102723.25;;;-1.47;100.00
58622;BME280;44389;51.578;5.456;2023-02-15T02:11:30;102724.94;;;-1.55;100.00
58622;BME280;44389;51.578;5.456;2023-02-15T02:13:56;102716.28;;;-1.57;100.00
58622;BME280;44389;51.578;5.456;2023-02-15T02:16:42;102719.13;;;-1.54;100.00
58622;BME280;44389;51.578;5.456;2023-02-15T02:22:17;102725.75;;;-1.86;100.00
58622;BME280;44389;51.578;5.456;2023-02-15T02:25:19;102716.19;;;-1.89;100.00
58622;BME280;44389;51.578;5.456;2023-02-15T02:27:56;102708.97;;;-1.86;100.00
58622;BME280;44389;51.578;5.456;2023-02-15T02:33:28;102705.75;;;-1.92;100.00
58622;BME280;44389;51.578;5.456;2023-02-15T02:36:20;102701.94;;;-1.88;100.00
58622;BME280;44389;51.578;5.456;2023-02-15T02:39:43;102701.38;;;-1.86;100.00
58622;BME280;44389;51.578;5.456;2023-02-15T02:42:18;102693.28;;;-1.90;100.00
58622;BME280;44389;51.578;5.456;2023-02-15T02:44:50;102697.66;;;-1.96;100.00
58622;BME280;44389;51.578;5.456;2023-02-15T02:47:35;102695.41;;;-1.86;100.00
58622;BME280;44389;51.578;5.456;2023-02-15T02:50:08;102696.38;;;-1.93;100.00
58622;BME280;44389;51.578;5.456;2023-02-15T02:55:06;102690.44;;;-1.93;100.00
58622;BME280;44389;51.578;5.456;2023-02-15T02:57:33;102691.31;;;-1.93;100.00
58622;BME280;44389;51.578;5.456;2023-02-15T03:00:04;102681.00;;;-1.87;100.00
58622;BME280;44389;51.578;5.456;2023-02-15T03:02:37;102681.28;;;-1.77;100.00
58622;BME280;44389;51.578;5.456;2023-02-15T03:05:09;102677.25;;;-1.75;100.00
58622;BME280;44389;51.578;5.456;2023-02-15T03:07:37;102681.28;;;-1.77;100.00
58622;BME280;44389;51.578;5.456;2023-02-15T03:10:05;102679.13;;;-1.81;100.00
58622;BME280;44389;51.578;5.456;2023-02-15T03:12:34;102671.47;;;-1.74;100.00
58622;BME280;44389;51.578;5.456;2023-02-15T03:17:37;102664.34;;;-1.85;100.00
58622;BME280;44389;51.578;5.456;2023-02-15T03:20:16;102665.84;;;-1.87;100.00
58622;BME280;44389;51.578;5.456;2023-02-15T03:22:56;102665.84;;;-1.87;100.00
58622;BME280;44389;51.578;5.456;2023-02-15T03:25:33;102665.09;;;-1.86;100.00
58622;BME280;44389;51.578;5.456;2023-02-15T03:28:03;102659.19;;;-1.94;100.00
58622;BME280;44389;51.578;5.456;2023-02-15T03:30:31;102661.16;;;-1.91;100.00
58622;BME280;44389;51.578;5.456;2023-02-15T03:32:59;102655.47;;;-1.97;100.00
58622;BME280;44389;51.578;5.456;2023-02-15T03:35:33;102652.56;;;-2.01;100.00
58622;BME280;44389;51.578;5.456;2023-02-15T03:38:03;102653.28;;;-2.02;100.00
58622;BME280;44389;51.578;5.456;2023-02-15T03:40:34;102660.88;;;-2.02;100.00
58622;BME280;44389;51.578;5.456;2023-02-15T03:46:19;102651.84;;;-2.00;100.00
58622;BME280;44389;51.578;5.456;2023-02-15T03:48:52;102652.44;;;-1.86;100.00
58622;BME280;44389;51.578;5.456;2023-02-15T03:51:21;102648.16;;;-1.87;100.00
58622;BME280;44389;51.578;5.456;2023-02-15T03:54:26;102646.09;;;-1.83;100.00
58622;BME280;44389;51.578;5.456;2023-02-15T03:57:27;102646.66;;;-1.85;100.00
58622;BME280;44389;51.578;5.456;2023-02-15T04:00:16;102644.38;;;-1.91;100.00
58622;BME280;44389;51.578;5.456;2023-02-15T04:03:29;102642.53;;;-1.85;100.00
58622;BME280;44389;51.578;5.456;2023-02-15T04:05:52;102643.09;;;-1.87;100.00
58622;BME280;44389;51.578;5.456;2023-02-15T04:08:18;102634.75;;;-1.86;100.00
58622;BME280;44389;51.578;5.456;2023-02-15T04:10:43;102631.50;;;-1.85;100.00
58622;BME280;44389;51.578;5.456;2023-02-15T04:13:39;102634.03;;;-1.85;100.00
58622;BME280;44389;51.578;5.456;2023-02-15T04:16:04;102637.22;;;-1.79;100.00
58622;BME280;44389;51.578;5.456;2023-02-15T04:18:31;102635.09;;;-1.83;100.00
58622;BME280;44389;51.578;5.456;2023-02-15T04:21:15;102638.34;;;-1.84;100.00
58622;BME280;44389;51.578;5.456;2023-02-15T04:23:59;102635.31;;;-1.89;100.00
58622;BME280;44389;51.578;5.456;2023-02-15T04:26:43;102646.44;;;-1.79;100.00
58622;BME280;44389;51.578;5.456;2023-02-15T04:29:08;102634.03;;;-1.85;100.00
58622;BME280;44389;51.578;5.456;2023-02-15T04:31:34;102631.34;;;-1.87;100.00
58622;BME280;44389;51.578;5.456;2023-02-15T04:33:59;102647.75;;;-1.83;100.00
58622;BME280;44389;51.578;5.456;2023-02-15T04:36:24;102647.91;;;-1.82;100.00
58622;BME280;44389;51.578;5.456;2023-02-15T04:38:49;102639.34;;;-1.75;100.00
58622;BME280;44389;51.578;5.456;2023-02-15T04:41:15;102631.28;;;-1.79;100.00
58622;BME280;44389;51.578;5.456;2023-02-15T04:43:40;102633.97;;;-1.78;100.00
58622;BME280;44389;51.578;5.456;2023-02-15T04:46:05;102634.75;;;-1.86;100.00
58622;BME280;44389;51.578;5.456;2023-02-15T04:48:31;102627.13;;;-1.79;100.00
58622;BME280;44389;51.578;5.456;2023-02-15T04:50:56;102622.94;;;-1.78;100.00
58622;BME280;44389;51.578;5.456;2023-02-15T04:53:21;102620.25;;;-1.80;100.00
58622;BME280;44389;51.578;5.456;2023-02-15T04:55:47;102617.56;;;-1.82;100.00
58622;BME280;44389;51.578;5.456;2023-02-15T04:58:12;102609.47;;;-1.86;100.00
58622;BME280;44389;51.578;5.456;2023-02-15T05:00:37;102602.81;;;-1.70;100.00
58622;BME280;44389;51.578;5.456;2023-02-15T05:03:03;102601.44;;;-1.75;100.00
58622;BME280;44389;51.578;5.456;2023-02-15T05:05:28;102603.81;;;-1.76;100.00
58622;BME280;44389;51.578;5.456;2023-02-15T05:07:53;102605.75;;;-1.74;100.00
58622;BME280;44389;51.578;5.456;2023-02-15T05:10:19;102602.25;;;-1.67;100.00
58622;BME280;44389;51.578;5.456;2023-02-15T05:12:44;102601.53;;;-1.50;100.00
58622;BME280;44389;51.578;5.456;2023-02-15T05:15:09;102595.50;;;-1.59;100.00
58622;BME280;44389;51.578;5.456;2023-02-15T05:17:35;102600.38;;;-1.45;100.00
58622;BME280;44389;51.578;5.456;2023-02-15T05:20:00;102606.16;;;-1.46;100.00
58622;BME280;44389;51.578;5.456;2023-02-15T05:22:26;102602.84;;;-1.38;100.00
58622;BME280;44389;51.578;5.456;2023-02-15T05:24:51;102607.16;;;-1.37;100.00
58622;BME280;44389;51.578;5.456;2023-02-15T05:27:35;102604.22;;;-1.33;100.00
58622;BME280;44389;51.578;5.456;2023-02-15T05:30:19;102608.22;;;-1.35;100.00
58622;BME280;44389;51.578;5.456;2023-02-15T05:32:44;102602.25;;;-1.35;100.00
58622;BME280;44389;51.578;5.456;2023-02-15T05:35:13;102606.09;;;-1.39;100.00
58622;BME280;44389;51.578;5.456;2023-02-15T05:37:39;102601.28;;;-1.44;100.00
58622;BME280;44389;51.578;5.456;2023-02-15T05:40:05;102602.19;;;-1.44;100.00
58622;BME280;44389;51.578;5.456;2023-02-15T05:42:30;102600.38;;;-1.45;100.00
58622;BME280;44389;51.578;5.456;2023-02-15T05:44:55;102598.19;;;-1.42;100.00
58622;BME280;44389;51.578;5.456;2023-02-15T05:47:21;102590.59;;;-1.42;100.00
58622;BME280;44389;51.578;5.456;2023-02-15T05:49:46;102591.41;;;-1.50;100.00
58622;BME280;44389;51.578;5.456;2023-02-15T05:52:11;102597.59;;;-1.55;100.00
58622;BME280;44389;51.578;5.456;2023-02-15T05:54:37;102594.66;;;-1.51;100.00
58622;BME280;44389;51.578;5.456;2023-02-15T05:57:02;102594.19;;;-1.40;100.00
58622;BME280;44389;51.578;5.456;2023-02-15T05:59:27;102590.84;;;-1.31;100.00
58622;BME280;44389;51.578;5.456;2023-02-15T06:01:53;102589.78;;;-1.34;100.00
58622;BME280;44389;51.578;5.456;2023-02-15T06:04:18;102599.72;;;-1.35;100.00
58622;BME280;44389;51.578;5.456;2023-02-15T06:06:44;102594.53;;;-1.37;100.00
58622;BME280;44389;51.578;5.456;2023-02-15T06:09:11;102596.94;;;-1.29;100.00
58622;BME280;44389;51.578;5.456;2023-02-15T06:11:37;102609.94;;;-1.26;100.00
58622;BME280;44389;51.578;5.456;2023-02-15T06:14:02;102610.59;;;-1.36;100.00
58622;BME280;44389;51.578;5.456;2023-02-15T06:16:27;102602.84;;;-1.38;100.00
58622;BME280;44389;51.578;5.456;2023-02-15T06:18:53;102599.81;;;-1.42;100.00
58622;BME280;44389;51.578;5.456;2023-02-15T06:21:18;102602.34;;;-1.42;100.00
58622;BME280;44389;51.578;5.456;2023-02-15T06:23:43;102602.91;;;-1.45;100.00
58622;BME280;44389;51.578;5.456;2023-02-15T06:26:08;102606.16;;;-1.46;100.00
58622;BME280;44389;51.578;5.456;2023-02-15T06:28:34;102600.38;;;-1.45;100.00
58622;BME280;44389;51.578;5.456;2023-02-15T06:30:59;102607.91;;;-1.38;100.00
58622;BME280;44389;51.578;5.456;2023-02-15T06:33:24;102606.66;;;-1.41;100.00
58622;BME280;44389;51.578;5.456;2023-02-15T06:35:50;102600.53;;;-1.43;100.00
58622;BME280;44389;51.578;5.456;2023-02-15T06:38:15;102600.47;;;-1.52;100.00
58622;BME280;44389;51.578;5.456;2023-02-15T06:40:40;102602.59;;;-1.48;100.00
58622;BME280;44389;51.578;5.456;2023-02-15T06:43:06;102602.25;;;-1.51;100.00
58622;BME280;44389;51.578;5.456;2023-02-15T06:45:31;102595.00;;;-1.48;100.00
58622;BME280;44389;51.578;5.456;2023-02-15T06:47:56;102589.59;;;-1.51;100.00
58622;BME280;44389;51.578;5.456;2023-02-15T06:50:22;102587.56;;;-1.46;100.00
58622;BME280;44389;51.578;5.456;2023-02-15T06:52:47;102590.25;;;-1.45;100.00
58622;BME280;44389;51.578;5.456;2023-02-15T06:55:12;102586.13;;;-1.44;100.00
58622;BME280;44389;51.578;5.456;2023-02-15T06:57:37;102578.53;;;-1.44;100.00
58622;BME280;44389;51.578;5.456;2023-02-15T07:00:03;102581.69;;;-1.38;100.00
58622;BME280;44389;51.578;5.456;2023-02-15T07:02:30;102573.22;;;-1.39;100.00
58622;BME280;44389;51.578;5.456;2023-02-15T07:04:56;102585.13;;;-1.38;100.00
58622;BME280;44389;51.578;5.456;2023-02-15T07:07:21;102578.19;;;-1.31;100.00
58622;BME280;44389;51.578;5.456;2023-02-15T07:09:46;102577.28;;;-1.32;100.00
58622;BME280;44389;51.578;5.456;2023-02-15T07:12:12;102564.78;;;-1.30;100.00
58622;BME280;44389;51.578;5.456;2023-02-15T07:14:56;102562.50;;;-1.20;100.00
58622;BME280;44389;51.578;5.456;2023-02-15T07:17:23;102563.97;;;-1.22;100.00
58622;BME280;44389;51.578;5.456;2023-02-15T07:19:48;102571.16;;;-1.18;100.00
58622;BME280;44389;51.578;5.456;2023-02-15T07:22:13;102565.22;;;-1.19;100.00
58622;BME280;44389;51.578;5.456;2023-02-15T07:24:39;102567.16;;;-1.16;100.00
58622;BME280;44389;51.578;5.456;2023-02-15T07:27:06;102570.00;;;-1.13;100.00
58622;BME280;44389;51.578;5.456;2023-02-15T07:29:32;102565.59;;;-1.07;100.00
58622;BME280;44389;51.578;5.456;2023-02-15T07:31:57;102567.03;;;-1.09;100.00
58622;BME280;44389;51.578;5.456;2023-02-15T07:34:22;102565.88;;;-1.04;100.00
58622;BME280;44389;51.578;5.456;2023-02-15T07:36:50;102566.97;;;-1.02;100.00
58622;BME280;44389;51.578;5.456;2023-02-15T07:39:16;102560.00;;;-0.95;100.00
58622;BME280;44389;51.578;5.456;2023-02-15T07:41:41;102562.13;;;-0.91;100.00
58622;BME280;44389;51.578;5.456;2023-02-15T07:44:11;102571.09;;;-0.86;100.00
58622;BME280;44389;51.578;5.456;2023-02-15T07:46:37;102564.84;;;-0.81;100.00
58622;BME280;44389;51.578;5.456;2023-02-15T07:49:02;102572.59;;;-0.79;100.00
58622;BME280;44389;51.578;5.456;2023-02-15T07:51:28;102561.31;;;-0.74;100.00
58622;BME280;44389;51.578;5.456;2023-02-15T07:53:54;102560.88;;;-0.70;100.00
58622;BME280;44389;51.578;5.456;2023-02-15T07:56:20;102561.03;;;-0.69;100.00
58622;BME280;44389;51.578;5.456;2023-02-15T07:58:45;102566.16;;;-0.60;100.00
58622;BME280;44389;51.578;5.456;2023-02-15T08:01:28;102559.78;;;-0.56;100.00
58622;BME280;44389;51.578;5.456;2023-02-15T08:03:55;102562.03;;;-0.51;100.00
58622;BME280;44389;51.578;5.456;2023-02-15T08:06:22;102557.91;;;-0.41;100.00
58622;BME280;44389;51.578;5.456;2023-02-15T08:08:47;102551.69;;;-0.36;100.00
58622;BME280;44389;51.578;5.456;2023-02-15T08:11:19;102550.81;;;-0.28;100.00
58622;BME280;44389;51.578;5.456;2023-02-15T08:13:59;102558.44;;;-0.19;100.00
58622;BME280;44389;51.578;5.456;2023-02-15T08:16:36;102558.31;;;-0.03;100.00
58622;BME280;44389;51.578;5.456;2023-02-15T08:21:37;102547.31;;;0.14;100.00
58622;BME280;44389;51.578;5.456;2023-02-15T08:24:07;102558.38;;;0.23;100.00
58622;BME280;44389;51.578;5.456;2023-02-15T08:26:34;102555.41;;;0.36;100.00
58622;BME280;44389;51.578;5.456;2023-02-15T08:29:00;102548.13;;;0.48;100.00
58622;BME280;44389;51.578;5.456;2023-02-15T08:31:26;102552.00;;;0.62;100.00
58622;BME280;44389;51.578;5.456;2023-02-15T08:33:53;102556.59;;;0.75;100.00
58622;BME280;44389;51.578;5.456;2023-02-15T08:36:20;102546.16;;;0.89;100.00
58622;BME280;44389;51.578;5.456;2023-02-15T08:38:46;102547.63;;;1.05;100.00
58622;BME280;44389;51.578;5.456;2023-02-15T08:41:13;102535.34;;;1.18;100.00
58622;BME280;44389;51.578;5.456;2023-02-15T08:43:39;102541.13;;;1.35;100.00
58622;BME280;44389;51.578;5.456;2023-02-15T08:46:06;102541.53;;;1.48;100.00
58622;BME280;44389;51.578;5.456;2023-02-15T08:48:31;102537.59;;;1.60;100.00
58622;BME280;44389;51.578;5.456;2023-02-15T08:50:56;102525.00;;;1.71;100.00
58622;BME280;44389;51.578;5.456;2023-02-15T08:53:22;102528.72;;;1.74;100.00
58622;BME280;44389;51.578;5.456;2023-02-15T08:55:55;102532.53;;;1.79;100.00
58622;BME280;44389;51.578;5.456;2023-02-15T08:58:21;102526.66;;;1.89;100.00
58622;BME280;44389;51.578;5.456;2023-02-15T09:00:46;102532.59;;;1.98;100.00
58622;BME280;44389;51.578;5.456;2023-02-15T09:03:11;102537.03;;;2.10;100.00
58622;BME280;44389;51.578;5.456;2023-02-15T09:05:37;102523.81;;;2.14;100.00
58622;BME280;44389;51.578;5.456;2023-02-15T09:08:02;102527.97;;;2.22;100.00
58622;BME280;44389;51.578;5.456;2023-02-15T09:10:27;102517.09;;;2.34;100.00
58622;BME280;44389;51.578;5.456;2023-02-15T09:12:53;102523.56;;;2.49;100.00
58622;BME280;44389;51.578;5.456;2023-02-15T09:15:18;102520.38;;;2.71;100.00
58622;BME280;44389;51.578;5.456;2023-02-15T09:17:43;102522.00;;;2.89;100.00
58622;BME280;44389;51.578;5.456;2023-02-15T09:20:09;102521.81;;;3.07;100.00
58622;BME280;44389;51.578;5.456;2023-02-15T09:22:34;102508.63;;;3.21;100.00
58622;BME280;44389;51.578;5.456;2023-02-15T09:24:59;102511.47;;;3.35;100.00
58622;BME280;44389;51.578;5.456;2023-02-15T09:27:25;102503.59;;;3.52;100.00
58622;BME280;44389;51.578;5.456;2023-02-15T09:29:50;102503.38;;;3.70;100.00
58622;BME280;44389;51.578;5.456;2023-02-15T09:32:15;102494.97;;;3.91;100.00
58622;BME280;44389;51.578;5.456;2023-02-15T09:34:42;102498.16;;;4.20;100.00
58622;BME280;44389;51.578;5.456;2023-02-15T09:37:07;102491.22;;;4.39;100.00
58622;BME280;44389;51.578;5.456;2023-02-15T09:39:40;102487.94;;;4.73;100.00
58622;BME280;44389;51.578;5.456;2023-02-15T09:42:28;102496.13;;;5.01;100.00
58622;BME280;44389;51.578;5.456;2023-02-15T10:11:43;102508.19;;;7.60;88.27
58622;BME280;44389;51.578;5.456;2023-02-15T10:25:22;102507.94;;;8.73;81.92
58622;BME280;44389;51.578;5.456;2023-02-15T10:27:50;102506.94;;;8.71;79.56
58622;BME280;44389;51.578;5.456;2023-02-15T10:30:29;102503.66;;;9.00;79.67
58622;BME280;44389;51.578;5.456;2023-02-15T10:33:09;102501.03;;;9.14;77.93
58622;BME280;44389;51.578;5.456;2023-02-15T10:44:22;102492.63;;;10.03;69.33
58622;BME280;44389;51.578;5.456;2023-02-15T10:47:06;102486.06;;;10.08;69.14
58622;BME280;44389;51.578;5.456;2023-02-15T10:55:15;102487.97;;;10.72;68.50
58622;BME280;44389;51.578;5.456;2023-02-15T10:57:56;102478.44;;;10.71;66.26
58622;BME280;44389;51.578;5.456;2023-02-15T11:03:25;102476.91;;;11.06;65.82
58622;BME280;44389;51.578;5.456;2023-02-15T11:08:34;102476.53;;;11.31;62.52
58622;BME280;44389;51.578;5.456;2023-02-15T11:11:03;102468.88;;;11.49;62.67
58622;BME280;44389;51.578;5.456;2023-02-15T11:13:36;102472.22;;;11.81;61.09
58622;BME280;44389;51.578;5.456;2023-02-15T11:16:08;102472.59;;;11.89;61.82
58622;BME280;44389;51.578;5.456;2023-02-15T11:18:40;102480.25;;;12.04;60.65
58622;BME280;44389;51.578;5.456;2023-02-15T11:21:32;102467.19;;;12.01;60.54
58622;BME280;44389;51.578;5.456;2023-02-15T11:24:10;102469.78;;;12.01;58.90
58622;BME280;44389;51.578;5.456;2023-02-15T11:26:50;102464.19;;;11.93;60.28
58622;BME280;44389;51.578;5.456;2023-02-15T11:29:26;102463.06;;;11.88;58.87
58622;BME280;44389;51.578;5.456;2023-02-15T11:31:57;102462.97;;;12.03;56.70
58622;BME280;44389;51.578;5.456;2023-02-15T11:34:37;102458.53;;;12.18;58.94
58622;BME280;44389;51.578;5.456;2023-02-15T11:37:10;102450.88;;;12.38;56.98
58622;BME280;44389;51.578;5.456;2023-02-15T11:39:37;102435.59;;;12.80;55.87
58622;BME280;44389;51.578;5.456;2023-02-15T11:42:23;102431.50;;;12.85;58.16
58622;BME280;44389;51.578;5.456;2023-02-15T11:45:02;102434.78;;;12.81;56.98
58622;BME280;44389;51.578;5.456;2023-02-15T11:47:30;102418.94;;;13.13;54.47
58622;BME280;44389;51.578;5.456;2023-02-15T11:49:56;102421.50;;;12.93;53.29
58622;BME280;44389;51.578;5.456;2023-02-15T11:52:21;102418.81;;;13.10;52.08
58622;BME280;44389;51.578;5.456;2023-02-15T11:54:49;102414.88;;;13.38;51.46
58622;BME280;44389;51.578;5.456;2023-02-15T11:59:55;102415.19;;;13.26;53.16
58622;BME280;44389;51.578;5.456;2023-02-15T12:02:22;102411.09;;;13.31;52.07
58622;BME280;44389;51.578;5.456;2023-02-15T12:04:52;102410.91;;;13.26;53.71
58622;BME280;44389;51.578;5.456;2023-02-15T12:07:27;102401.81;;;13.36;52.73
58622;BME280;44389;51.578;5.456;2023-02-15T12:10:03;102402.44;;;13.30;53.19
58622;BME280;44389;51.578;5.456;2023-02-15T12:12:37;102400.56;;;13.07;53.10
58622;BME280;44389;51.578;5.456;2023-02-15T12:15:08;102400.06;;;13.35;53.83
58622;BME280;44389;51.578;5.456;2023-02-15T12:17:53;102395.91;;;13.39;54.16
58622;BME280;44389;51.578;5.456;2023-02-15T12:22:53;102390.66;;;13.17;52.22
58622;BME280;44389;51.578;5.456;2023-02-15T12:27:50;102387.00;;;12.73;53.07
58622;BME280;44389;51.578;5.456;2023-02-15T12:30:21;102386.53;;;12.64;53.86
58622;BME280;44389;51.578;5.456;2023-02-15T12:32:52;102383.84;;;12.61;54.30
58622;BME280;44389;51.578;5.456;2023-02-15T12:35:29;102382.06;;;12.79;55.72
58622;BME280;44389;51.578;5.456;2023-02-15T12:38:09;102377.06;;;12.82;54.71
58622;BME280;44389;51.578;5.456;2023-02-15T12:40:58;102378.97;;;12.87;54.70
58622;BME280;44389;51.578;5.456;2023-02-15T12:43:35;102381.94;;;12.96;53.27
58622;BME280;44389;51.578;5.456;2023-02-15T12:48:39;102366.97;;;13.08;53.13
58622;BME280;44389;51.578;5.456;2023-02-15T12:51:08;102363.28;;;13.23;53.33
58622;BME280;44389;51.578;5.456;2023-02-15T12:53:35;102365.09;;;13.45;53.01
58622;BME280;44389;51.578;5.456;2023-02-15T12:56:03;102354.00;;;13.28;52.76
58622;BME280;44389;51.578;5.456;2023-02-15T12:58:30;102355.88;;;13.52;52.03
58622;BME280;44389;51.578;5.456;2023-02-15T13:01:12;102346.41;;;13.73;53.52
58622;BME280;44389;51.578;5.456;2023-02-15T13:03:56;102353.63;;;13.80;53.23
58622;BME280;44389;51.578;5.456;2023-02-15T13:06:23;102340.84;;;13.64;51.23
58622;BME280;44389;51.578;5.456;2023-02-15T13:08:51;102345.13;;;13.85;50.89
58622;BME280;44389;51.578;5.456;2023-02-15T13:11:25;102342.28;;;13.78;51.67
58622;BME280;44389;51.578;5.456;2023-02-15T13:13:55;102336.41;;;13.82;51.16
58622;BME280;44389;51.578;5.456;2023-02-15T13:16:31;102327.69;;;14.24;50.69
58622;BME280;44389;51.578;5.456;2023-02-15T13:18:58;102327.06;;;14.31;49.66
58622;BME280;44389;51.578;5.456;2023-02-15T13:21:32;102324.88;;;14.20;50.41
58622;BME280;44389;51.578;5.456;2023-02-15T13:24:05;102336.66;;;14.34;49.56
58622;BME280;44389;51.578;5.456;2023-02-15T13:26:32;102327.38;;;14.16;49.40
58622;BME280;44389;51.578;5.456;2023-02-15T13:29:07;102320.84;;;14.04;49.48
58622;BME280;44389;51.578;5.456;2023-02-15T13:31:34;102315.88;;;13.87;50.08
58622;BME280;44389;51.578;5.456;2023-02-15T13:34:06;102321.00;;;13.86;50.92
58622;BME280;44389;51.578;5.456;2023-02-15T13:39:41;102319.09;;;13.81;51.75
58622;BME280;44389;51.578;5.456;2023-02-15T13:42:22;102322.66;;;13.62;51.17
58622;BME280;44389;51.578;5.456;2023-02-15T13:45:10;102317.03;;;13.52;54.42
58622;BME280;44389;51.578;5.456;2023-02-15T13:47:59;102305.44;;;13.22;52.68
58622;BME280;44389;51.578;5.456;2023-02-15T13:50:45;102298.91;;;13.11;54.06
58622;BME280;44389;51.578;5.456;2023-02-15T13:53:28;102302.25;;;13.08;53.53
58622;BME280;44389;51.578;5.456;2023-02-15T13:56:04;102300.69;;;12.92;54.24
58622;BME280;44389;51.578;5.456;2023-02-15T14:01:31;102296.06;;;13.45;53.90
58622;BME280;44389;51.578;5.456;2023-02-15T14:09:27;102311.28;;;13.38;52.68
58622;BME280;44389;51.578;5.456;2023-02-15T14:15:00;102314.06;;;13.42;54.04
58622;BME280;44389;51.578;5.456;2023-02-15T14:17:59;102314.50;;;13.33;54.41
58622;BME280;44389;51.578;5.456;2023-02-15T14:23:37;102321.75;;;12.80;55.22
58622;BME280;44389;51.578;5.456;2023-02-15T14:26:40;102319.97;;;12.60;56.10
58622;BME280;44389;51.578;5.456;2023-02-15T14:32:23;102323.88;;;12.12;56.88
58622;BME280;44389;51.578;5.456;2023-02-15T14:34:56;102320.03;;;12.04;57.53
58622;BME280;44389;51.578;5.456;2023-02-15T14:40:37;102320.16;;;11.89;57.63
58622;BME280;44389;51.578;5.456;2023-02-15T14:46:07;102321.34;;;11.78;58.76
58622;BME280;44389;51.578;5.456;2023-02-15T14:48:42;102317.59;;;11.71;58.48
58622;BME280;44389;51.578;5.456;2023-02-15T14:51:10;102321.47;;;11.63;57.78
58622;BME280;44389;51.578;5.456;2023-02-15T14:53:37;102324.66;;;11.57;58.35
58622;BME280;44389;51.578;5.456;2023-02-15T14:56:16;102317.63;;;11.55;59.60
58622;BME280;44389;51.578;5.456;2023-02-15T15:01:27;102315.25;;;11.41;60.67
58622;BME280;44389;51.578;5.456;2023-02-15T15:03:56;102321.88;;;11.36;60.34
58622;BME280;44389;51.578;5.456;2023-02-15T15:06:32;102321.72;;;11.33;61.55
58622;BME280;44389;51.578;5.456;2023-02-15T15:09:22;102325.34;;;11.36;63.07
58622;BME280;44389;51.578;5.456;2023-02-15T15:11:53;102318.75;;;11.25;60.79
58622;BME280;44389;51.578;5.456;2023-02-15T15:17:00;102331.13;;;11.14;60.93
58622;BME280;44389;51.578;5.456;2023-02-15T15:22:39;102320.41;;;11.07;62.54
58622;BME280;44389;51.578;5.456;2023-02-15T15:28:00;102305.69;;;10.87;62.59
58622;BME280;44389;51.578;5.456;2023-02-15T15:35:27;102305.69;;;10.71;63.18
58622;BME280;44389;51.578;5.456;2023-02-15T15:41:15;102311.00;;;10.58;63.26
58622;BME280;44389;51.578;5.456;2023-02-15T15:46:37;102312.75;;;10.42;65.96
58622;BME280;44389;51.578;5.456;2023-02-15T15:49:19;102304.78;;;10.37;65.42
58622;BME280;44389;51.578;5.456;2023-02-15T15:51:45;102297.59;;;10.32;65.36
58622;BME280;44389;51.578;5.456;2023-02-15T15:54:20;102292.09;;;10.26;65.92
58622;BME280;44389;51.578;5.456;2023-02-15T15:56:59;102300.47;;;10.21;66.75
58622;BME280;44389;51.578;5.456;2023-02-15T15:59:27;102291.59;;;10.16;67.27
58622;BME280;44389;51.578;5.456;2023-02-15T16:01:54;102296.41;;;10.10;66.98
58622;BME280;44389;51.578;5.456;2023-02-15T16:04:28;102303.00;;;10.05;67.81
58622;BME280;44389;51.578;5.456;2023-02-15T16:06:58;102298.97;;;10.10;68.22
58622;BME280;44389;51.578;5.456;2023-02-15T16:09:37;102304.88;;;9.93;68.16